createdAt,value
2022-10-21T00:01:40.436Z,30.28
2022-10-21T00:04:06.625Z,30.29
2022-10-21T00:06:32.973Z,30.22
2022-10-21T00:08:59.374Z,30.21
2022-10-21T00:11:25.661Z,30.26
2022-10-21T00:13:52.000Z,30.20
2022-10-21T00:16:18.347Z,30.34
2022-10-21T00:18:44.696Z,30.25
2022-10-21T00:21:11.033Z,30.29
2022-10-21T00:23:37.374Z,30.30
2022-10-21T00:26:03.723Z,30.30
2022-10-21T00:28:30.067Z,30.25
2022-10-21T00:30:58.094Z,30.26
2022-10-21T00:33:22.762Z,30.19
2022-10-21T00:35:49.104Z,30.21
2022-10-21T00:38:15.457Z,30.17
2022-10-21T00:40:41.811Z,30.14
2022-10-21T00:43:08.187Z,30.14
2022-10-21T00:45:34.575Z,30.11
2022-10-21T00:48:00.910Z,30.08
2022-10-21T00:50:27.288Z,30.06
2022-10-21T00:52:53.637Z,30.11
2022-10-21T00:55:19.988Z,30.08
2022-10-21T00:57:46.337Z,30.11
2022-10-21T01:00:12.675Z,30.08
2022-10-21T01:02:39.012Z,30.08
2022-10-21T01:05:05.348Z,30.05
2022-10-21T01:07:31.692Z,30.05
2022-10-21T01:09:58.033Z,30.01
2022-10-21T01:12:24.376Z,30.01
2022-10-21T01:14:50.777Z,30.10
2022-10-21T01:17:26.573Z,30.01
2022-10-21T01:19:43.722Z,30.02
2022-10-21T01:22:10.071Z,30.21
2022-10-21T01:24:36.408Z,30.14
2022-10-21T01:27:02.756Z,30.01
2022-10-21T01:29:30.301Z,30.19
2022-10-21T01:31:55.436Z,30.05
2022-10-21T01:34:21.781Z,30.11
2022-10-21T01:36:48.159Z,30.03
2022-10-21T01:39:14.491Z,30.03
2022-10-21T01:41:40.873Z,30.00
2022-10-21T01:44:07.179Z,29.95
2022-10-21T01:46:33.532Z,29.97
2022-10-21T01:48:59.878Z,30.00
2022-10-21T01:53:52.571Z,29.94
2022-10-21T01:56:18.917Z,30.00
2022-10-21T01:58:45.258Z,30.03
2022-10-21T02:01:11.658Z,30.01
2022-10-21T02:03:38.009Z,29.98
2022-10-21T02:06:04.353Z,29.98
2022-10-21T02:08:30.789Z,29.99
2022-10-21T02:10:57.071Z,30.01
2022-10-21T02:13:23.412Z,29.99
2022-10-21T02:15:49.757Z,29.99
2022-10-21T02:18:16.100Z,29.97
2022-10-21T02:20:42.439Z,30.01
2022-10-21T02:23:08.787Z,30.00
2022-10-21T02:25:35.125Z,29.98
2022-10-21T02:28:01.467Z,30.01
2022-10-21T02:30:27.819Z,29.97
2022-10-21T02:32:54.161Z,29.99
2022-10-21T02:35:20.507Z,30.01
2022-10-21T02:37:46.880Z,29.98
2022-10-21T02:40:13.243Z,30.02
2022-10-21T02:42:39.803Z,30.01
2022-10-21T02:45:05.932Z,30.02
2022-10-21T02:47:32.275Z,30.02
2022-10-21T02:49:58.615Z,30.05
2022-10-21T02:52:24.964Z,30.01
2022-10-21T02:54:51.299Z,30.01
2022-10-21T02:57:17.641Z,30.01
2022-10-21T02:59:43.991Z,29.98
2022-10-21T03:02:10.328Z,29.98
2022-10-21T03:04:36.678Z,29.95
2022-10-21T03:07:03.014Z,29.95
2022-10-21T03:09:29.366Z,29.93
2022-10-21T03:11:55.708Z,29.92
2022-10-21T03:14:22.050Z,29.90
2022-10-21T03:16:48.390Z,29.95
2022-10-21T03:19:14.734Z,29.91
2022-10-21T03:21:41.078Z,29.92
2022-10-21T03:24:11.090Z,29.92
2022-10-21T03:26:33.807Z,29.87
2022-10-21T03:29:00.142Z,29.95
2022-10-21T03:31:26.525Z,29.89
2022-10-21T03:33:52.897Z,29.89
2022-10-21T03:36:19.198Z,29.93
2022-10-21T03:38:45.547Z,29.94
2022-10-21T03:41:11.884Z,29.95
2022-10-21T03:43:38.270Z,29.88
2022-10-21T03:46:04.616Z,29.96
2022-10-21T03:48:31.003Z,30.01
2022-10-21T03:50:57.468Z,29.91
2022-10-21T03:53:42.131Z,29.89
2022-10-21T03:55:53.048Z,29.89
2022-10-21T03:58:16.497Z,29.91
2022-10-21T04:00:42.854Z,29.88
2022-10-21T04:03:09.185Z,29.88
2022-10-21T04:05:35.522Z,29.85
2022-10-21T04:08:01.879Z,29.85
2022-10-21T04:10:28.220Z,29.90
2022-10-21T04:12:54.586Z,29.92
2022-10-21T04:15:20.929Z,29.84
2022-10-21T04:17:47.268Z,29.87
2022-10-21T04:20:13.609Z,29.88
2022-10-21T04:22:40.144Z,29.98
2022-10-21T04:25:06.295Z,29.97
2022-10-21T04:27:32.639Z,30.77
2022-10-21T04:29:58.976Z,30.55
2022-10-21T04:32:25.315Z,30.42
2022-10-21T04:34:51.685Z,30.27
2022-10-21T04:37:18.031Z,30.19
2022-10-21T04:39:44.377Z,30.14
2022-10-21T04:42:10.726Z,30.10
2022-10-21T04:44:37.063Z,30.05
2022-10-21T04:47:03.402Z,30.07
2022-10-21T04:49:29.742Z,29.98
2022-10-21T04:51:56.123Z,30.02
2022-10-21T04:54:22.427Z,30.00
2022-10-21T04:56:48.773Z,29.96
2022-10-21T04:59:15.112Z,29.91
2022-10-21T05:01:42.408Z,29.89
2022-10-21T05:04:07.807Z,29.92
2022-10-21T05:06:34.154Z,29.98
2022-10-21T05:09:00.562Z,29.95
2022-10-21T05:11:26.837Z,30.03
2022-10-21T05:13:53.178Z,30.08
2022-10-21T05:16:19.527Z,29.94
2022-10-21T05:18:45.926Z,30.00
2022-10-21T05:21:12.274Z,29.99
2022-10-21T05:23:38.617Z,29.96
2022-10-21T05:26:04.967Z,29.82
2022-10-21T05:28:31.325Z,29.93
2022-10-21T05:30:57.662Z,29.98
2022-10-21T05:33:23.996Z,30.05
2022-10-21T05:35:50.353Z,29.95
2022-10-21T05:38:16.712Z,29.98
2022-10-21T05:40:43.167Z,29.88
2022-10-21T05:43:09.503Z,29.92
2022-10-21T05:45:35.850Z,29.98
2022-10-21T05:48:02.188Z,30.08
2022-10-21T05:50:28.541Z,30.01
2022-10-21T05:52:55.743Z,30.07
2022-10-21T05:55:21.237Z,29.92
2022-10-21T05:57:47.718Z,29.91
2022-10-21T06:00:13.989Z,29.93
2022-10-21T06:02:40.616Z,29.91
2022-10-21T06:05:06.684Z,29.84
2022-10-21T06:07:33.055Z,29.84
2022-10-21T06:09:59.411Z,29.95
2022-10-21T06:12:25.833Z,30.08
2022-10-21T06:14:52.190Z,30.03
2022-10-21T06:17:18.532Z,30.04
2022-10-21T06:19:47.364Z,30.08
2022-10-21T06:22:11.233Z,30.25
2022-10-21T06:24:37.579Z,30.29
2022-10-21T06:27:03.925Z,30.15
2022-10-21T06:29:30.271Z,30.17
2022-10-21T06:31:56.614Z,30.11
2022-10-21T06:34:22.959Z,30.11
2022-10-21T06:36:49.310Z,30.09
2022-10-21T06:39:15.653Z,30.13
2022-10-21T06:41:42.003Z,30.02
2022-10-21T06:44:08.353Z,30.01
2022-10-21T06:46:34.755Z,29.99
2022-10-21T06:49:01.097Z,30.15
2022-10-21T06:51:27.447Z,30.10
2022-10-21T06:53:53.792Z,30.10
2022-10-21T06:56:20.138Z,30.07
2022-10-21T06:58:46.494Z,30.06
2022-10-21T07:01:27.230Z,30.11
2022-10-21T07:03:39.186Z,30.18
2022-10-21T07:06:05.528Z,30.30
2022-10-21T07:08:46.469Z,30.27
2022-10-21T07:10:58.299Z,30.40
2022-10-21T07:13:26.111Z,30.56
2022-10-21T07:15:51.064Z,30.62
2022-10-21T07:18:17.353Z,30.59
2022-10-21T07:20:43.685Z,30.59
2022-10-21T07:23:10.066Z,30.62
2022-10-21T07:25:36.426Z,30.69
2022-10-21T07:28:02.803Z,30.69
2022-10-21T07:30:29.151Z,30.75
2022-10-21T07:32:55.507Z,30.75
2022-10-21T07:35:21.852Z,30.80
2022-10-21T07:37:48.212Z,30.80
2022-10-21T07:40:14.562Z,30.72
2022-10-21T07:42:40.909Z,30.80
2022-10-21T07:45:07.263Z,30.60
2022-10-21T07:47:33.619Z,30.68
2022-10-21T07:49:59.960Z,30.75
2022-10-21T07:52:26.299Z,30.68
2022-10-21T07:54:52.648Z,30.58
2022-10-21T07:57:19.060Z,30.57
2022-10-21T07:59:45.412Z,30.54
2022-10-21T08:02:11.760Z,30.50
2022-10-21T08:04:38.106Z,30.59
2022-10-21T08:07:04.466Z,30.54
2022-10-21T08:09:30.837Z,30.63
2022-10-21T08:11:57.186Z,30.70
2022-10-21T08:17:08.806Z,30.82
2022-10-21T08:19:35.151Z,30.69
2022-10-21T08:22:01.507Z,30.72
2022-10-21T08:24:27.907Z,30.72
2022-10-21T08:26:54.269Z,30.77
2022-10-21T08:29:20.614Z,30.79
2022-10-21T08:31:47.015Z,30.78
2022-10-21T08:34:13.363Z,30.79
2022-10-21T08:36:39.769Z,30.85
2022-10-21T08:39:06.129Z,30.81
2022-10-21T08:41:32.483Z,30.72
2022-10-21T08:43:58.824Z,30.61
2022-10-21T08:46:25.197Z,30.58
2022-10-21T08:48:51.569Z,30.51
2022-10-21T08:51:17.921Z,30.46
2022-10-21T08:53:44.267Z,30.47
2022-10-21T08:56:12.619Z,30.46
2022-10-21T08:58:36.990Z,30.50
2022-10-21T09:01:03.328Z,30.47
2022-10-21T09:03:29.677Z,30.50
2022-10-21T09:05:56.041Z,30.43
2022-10-21T09:08:22.388Z,30.43
2022-10-21T09:10:48.724Z,30.35
2022-10-21T09:13:15.070Z,30.41
2022-10-21T09:15:41.411Z,30.40
2022-10-21T09:18:07.781Z,30.46
2022-10-21T09:20:34.120Z,30.47
2022-10-21T09:23:00.498Z,30.54
2022-10-21T09:25:26.845Z,30.43
2022-10-21T09:27:57.218Z,30.44
2022-10-21T09:30:19.529Z,30.41
2022-10-21T09:32:45.932Z,30.43
2022-10-21T09:35:12.267Z,30.38
2022-10-21T09:37:38.850Z,30.37
2022-10-21T09:40:05.016Z,30.33
2022-10-21T09:42:48.188Z,30.37
2022-10-21T09:44:57.715Z,30.33
2022-10-21T09:47:24.063Z,30.26
2022-10-21T09:50:07.654Z,30.24
2022-10-21T09:52:16.775Z,30.20
2022-10-21T09:54:43.163Z,30.20
2022-10-21T09:57:09.503Z,30.25
2022-10-21T09:59:35.859Z,30.21
2022-10-21T10:02:02.209Z,30.19
2022-10-21T10:04:28.548Z,30.18
2022-10-21T10:06:54.903Z,30.11
2022-10-21T10:09:21.251Z,30.05
2022-10-21T10:11:47.589Z,30.04
2022-10-21T10:14:14.017Z,30.05
2022-10-21T10:16:40.322Z,30.10
2022-10-21T10:19:06.678Z,30.00
2022-10-21T10:21:33.195Z,29.99
2022-10-21T10:23:59.530Z,29.92
2022-10-21T10:26:25.870Z,29.99
2022-10-21T10:28:52.234Z,30.04
2022-10-21T10:31:18.562Z,30.05
2022-10-21T10:33:45.009Z,30.10
2022-10-21T10:36:11.293Z,30.08
2022-10-21T10:38:37.674Z,30.13
2022-10-21T10:41:04.023Z,30.10
2022-10-21T10:43:30.377Z,30.14
2022-10-21T10:45:56.759Z,30.17
2022-10-21T10:48:23.140Z,30.19
2022-10-21T10:50:49.481Z,30.21
2022-10-21T10:53:15.905Z,30.26
2022-10-21T10:55:42.288Z,30.23
2022-10-21T10:58:14.477Z,30.15
2022-10-21T11:00:34.949Z,30.13
2022-10-21T11:03:01.316Z,30.15
2022-10-21T11:05:27.655Z,30.21
2022-10-21T11:07:54.000Z,30.22
2022-10-21T11:10:20.338Z,30.06
2022-10-21T11:12:46.692Z,30.01
2022-10-21T11:15:13.034Z,30.02
2022-10-21T11:17:39.711Z,30.11
2022-10-21T11:22:48.041Z,30.11
2022-10-21T11:25:14.386Z,30.18
2022-10-21T11:27:41.185Z,30.15
2022-10-21T11:30:07.112Z,30.18
2022-10-21T11:32:33.452Z,30.08
2022-10-21T11:34:59.780Z,30.05
2022-10-21T11:37:26.134Z,30.22
2022-10-21T11:39:52.478Z,30.27
2022-10-21T11:42:18.828Z,30.31
2022-10-21T11:44:45.180Z,30.27
2022-10-21T11:47:11.535Z,30.30
2022-10-21T11:49:37.874Z,30.40
2022-10-21T11:52:04.239Z,30.33
2022-10-21T11:54:30.581Z,30.43
2022-10-21T11:56:56.920Z,30.42
2022-10-21T12:01:49.668Z,30.44
2022-10-21T12:04:15.966Z,30.35
2022-10-21T12:06:42.301Z,30.32
2022-10-21T12:09:08.679Z,30.65
2022-10-21T12:11:35.020Z,30.53
2022-10-21T12:14:01.380Z,30.50
2022-10-21T12:16:27.725Z,30.56
2022-10-21T12:18:54.073Z,30.40
2022-10-21T12:21:20.409Z,30.54
2022-10-21T12:23:46.765Z,30.41
2022-10-21T12:26:13.108Z,30.44
2022-10-21T12:28:39.445Z,30.43
2022-10-21T12:31:05.802Z,30.51
2022-10-21T12:33:32.167Z,30.57
2022-10-21T12:35:58.519Z,30.53
2022-10-21T12:38:24.861Z,30.48
2022-10-21T12:40:51.259Z,30.50
2022-10-21T12:43:17.594Z,30.50
2022-10-21T12:45:43.942Z,30.48
2022-10-21T12:48:10.320Z,30.53
2022-10-21T12:50:36.680Z,30.62
2022-10-21T12:53:03.039Z,30.70
2022-10-21T12:55:29.385Z,30.57
2022-10-21T12:57:55.758Z,30.62
2022-10-21T13:00:22.123Z,30.63
2022-10-21T13:02:51.720Z,30.60
2022-10-21T13:05:14.814Z,30.64
2022-10-21T13:07:41.157Z,30.59
2022-10-21T13:10:07.496Z,30.58
2022-10-21T13:12:33.843Z,30.60
2022-10-21T13:15:00.188Z,30.62
2022-10-21T13:17:26.569Z,30.59
2022-10-21T13:19:52.983Z,30.62
2022-10-21T13:22:19.322Z,30.61
2022-10-21T13:24:45.674Z,30.69
2022-10-21T13:27:12.118Z,30.69
2022-10-21T13:29:38.464Z,30.81
2022-10-21T13:32:04.843Z,30.64
2022-10-21T13:34:31.157Z,30.57
2022-10-21T13:36:57.507Z,30.60
2022-10-21T13:39:23.858Z,30.64
2022-10-21T13:41:51.173Z,30.66
2022-10-21T13:44:16.568Z,30.70
2022-10-21T13:46:43.845Z,30.69
2022-10-21T13:49:09.280Z,30.69
2022-10-21T13:51:35.627Z,30.64
2022-10-21T13:54:01.977Z,30.66
2022-10-21T13:56:28.341Z,30.67
2022-10-21T13:58:54.680Z,30.72
2022-10-21T14:01:21.061Z,30.79
2022-10-21T14:06:14.905Z,30.93
2022-10-21T14:08:40.108Z,30.78
2022-10-21T14:11:06.395Z,30.75
2022-10-21T14:13:32.741Z,30.95
2022-10-21T14:15:59.419Z,30.92
2022-10-21T14:18:28.286Z,30.92
2022-10-21T14:20:52.095Z,30.93
2022-10-21T14:23:18.442Z,30.99
2022-10-21T14:25:44.789Z,31.14
2022-10-21T14:28:11.154Z,31.04
2022-10-21T14:30:37.508Z,31.04
2022-10-21T14:33:03.858Z,31.11
2022-10-21T14:35:30.190Z,31.16
2022-10-21T14:37:57.494Z,31.11
2022-10-21T14:40:22.884Z,31.19
2022-10-21T14:42:52.381Z,31.12
2022-10-21T14:45:15.571Z,31.26
2022-10-21T14:47:41.924Z,31.36
2022-10-21T14:50:08.257Z,31.41
2022-10-21T14:52:34.602Z,31.48
2022-10-21T14:55:00.963Z,31.48
2022-10-21T14:57:27.341Z,31.44
2022-10-21T14:59:53.681Z,31.36
2022-10-21T15:02:20.024Z,31.49
2022-10-21T15:04:46.360Z,31.48
2022-10-21T15:07:12.785Z,31.43
2022-10-21T15:09:39.038Z,31.53
2022-10-21T15:12:05.392Z,31.35
2022-10-21T15:14:31.726Z,31.24
2022-10-21T15:16:58.065Z,31.30
2022-10-21T15:19:24.409Z,31.36
2022-10-21T15:21:50.763Z,31.31
2022-10-21T15:24:17.093Z,31.38
2022-10-21T15:26:43.483Z,31.34
2022-10-21T15:29:09.817Z,31.43
2022-10-21T15:31:36.173Z,31.36
2022-10-21T15:34:02.520Z,31.43
2022-10-21T15:36:28.859Z,31.39
2022-10-21T15:38:55.190Z,31.42
2022-10-21T15:41:21.530Z,31.46
2022-10-21T15:46:14.240Z,31.36
2022-10-21T15:48:40.574Z,31.49
2022-10-21T15:51:06.922Z,31.44
2022-10-21T15:53:33.285Z,31.51
2022-10-21T15:55:59.607Z,31.57
2022-10-21T15:58:25.939Z,31.51
2022-10-21T16:00:53.416Z,31.62
2022-10-21T16:03:18.685Z,31.61
2022-10-21T16:05:45.027Z,31.56
2022-10-21T16:08:11.365Z,31.55
2022-10-21T16:10:37.705Z,31.53
2022-10-21T16:13:04.041Z,31.54
2022-10-21T16:15:30.407Z,31.56
2022-10-21T16:17:56.742Z,31.59
2022-10-21T16:20:23.108Z,31.47
2022-10-21T16:22:49.442Z,31.45
2022-10-21T16:25:15.788Z,31.43
2022-10-21T16:27:54.831Z,31.40
2022-10-21T16:30:08.469Z,31.46
2022-10-21T16:32:34.808Z,31.37
2022-10-21T16:35:01.153Z,31.30
2022-10-21T16:37:27.487Z,31.35
2022-10-21T16:39:53.890Z,31.32
2022-10-21T16:42:20.172Z,31.29
2022-10-21T16:44:46.510Z,31.14
2022-10-21T16:47:12.933Z,31.26
2022-10-21T16:49:39.258Z,31.25
2022-10-21T16:52:05.585Z,31.25
2022-10-21T16:54:31.931Z,31.29
2022-10-21T16:56:59.032Z,31.24
2022-10-21T16:59:24.622Z,31.24
2022-10-21T17:01:50.956Z,31.27
2022-10-21T17:04:17.296Z,31.25
2022-10-21T17:06:43.643Z,31.24
2022-10-21T17:09:10.041Z,31.05
2022-10-21T17:11:36.324Z,31.08
2022-10-21T17:14:02.668Z,31.20
2022-10-21T17:16:28.996Z,31.21
2022-10-21T17:18:55.350Z,31.16
2022-10-21T17:21:21.684Z,31.24
2022-10-21T17:23:48.032Z,31.24
2022-10-21T17:26:14.366Z,31.19
2022-10-21T17:28:40.706Z,31.10
2022-10-21T17:31:07.057Z,31.12
2022-10-21T17:33:33.401Z,31.14
2022-10-21T17:35:59.768Z,30.98
2022-10-21T17:38:26.108Z,30.98
2022-10-21T17:40:52.469Z,30.99
2022-10-21T17:43:18.807Z,30.92
2022-10-21T17:45:45.152Z,31.03
2022-10-21T17:48:11.496Z,30.97
2022-10-21T17:50:37.879Z,30.97
2022-10-21T17:53:04.174Z,30.98
2022-10-21T17:55:30.507Z,30.99
2022-10-21T17:57:56.850Z,31.01
2022-10-21T18:00:23.180Z,31.03
2022-10-21T18:02:49.551Z,31.03
2022-10-21T18:05:17.323Z,31.08
2022-10-21T18:07:42.363Z,30.97
2022-10-21T18:10:08.572Z,30.94
2022-10-21T18:12:34.926Z,30.90
2022-10-21T18:15:01.254Z,31.04
2022-10-21T18:17:27.599Z,30.93
2022-10-21T18:19:53.963Z,31.01
2022-10-21T18:22:20.305Z,30.91
2022-10-21T18:24:46.637Z,30.89
2022-10-21T18:27:12.991Z,31.13
2022-10-21T18:29:39.322Z,31.02
2022-10-21T18:32:05.661Z,30.98
2022-10-21T18:34:32.033Z,31.09
2022-10-21T18:36:58.377Z,31.05
2022-10-21T18:39:25.898Z,30.98
2022-10-21T18:41:51.045Z,31.07
2022-10-21T18:44:17.386Z,30.99
2022-10-21T18:46:43.731Z,31.01
2022-10-21T18:49:10.072Z,30.98
2022-10-21T18:51:36.411Z,30.95
2022-10-21T18:54:02.739Z,31.01
2022-10-21T18:56:29.079Z,31.10
2022-10-21T18:58:55.449Z,31.03
2022-10-21T19:01:21.837Z,31.13
2022-10-21T19:03:48.114Z,31.08
2022-10-21T19:06:14.526Z,31.08
2022-10-21T19:08:40.916Z,31.06
2022-10-21T19:11:07.211Z,31.13
2022-10-21T19:13:33.560Z,31.11
2022-10-21T19:15:59.894Z,31.09
2022-10-21T19:18:26.249Z,31.19
2022-10-21T19:20:52.586Z,31.20
2022-10-21T19:23:18.931Z,31.26
2022-10-21T19:25:45.276Z,31.19
2022-10-21T19:28:11.621Z,31.22
2022-10-21T19:30:37.958Z,31.11
2022-10-21T19:33:04.301Z,31.25
2022-10-21T19:35:30.637Z,31.25
2022-10-21T19:38:00.584Z,31.24
2022-10-21T19:40:23.317Z,31.20
2022-10-21T19:42:50.901Z,31.33
2022-10-21T19:45:15.991Z,31.23
2022-10-21T19:47:42.332Z,31.30
2022-10-21T19:50:08.694Z,31.30
2022-10-21T19:52:35.029Z,31.32
2022-10-21T19:55:01.351Z,31.24
2022-10-21T19:57:27.686Z,31.33
2022-10-21T19:59:54.030Z,31.37
2022-10-21T20:02:20.365Z,31.26
2022-10-21T20:04:46.777Z,31.14
2022-10-21T20:07:13.110Z,31.20
2022-10-21T20:09:39.454Z,31.36
2022-10-21T20:12:05.787Z,31.22
2022-10-21T20:14:32.135Z,31.27
2022-10-21T20:16:58.474Z,31.24
2022-10-21T20:19:24.820Z,31.32
2022-10-21T20:21:51.231Z,31.24
2022-10-21T20:24:17.530Z,31.30
2022-10-21T20:26:43.869Z,31.43
2022-10-21T20:29:10.194Z,31.35
2022-10-21T20:31:36.537Z,31.34
2022-10-21T20:34:02.906Z,31.37
2022-10-21T20:36:29.236Z,31.27
2022-10-21T20:38:55.580Z,31.33
2022-10-21T20:41:21.946Z,31.34
2022-10-21T20:43:48.282Z,31.37
2022-10-21T20:46:14.621Z,31.33
2022-10-21T20:48:40.959Z,31.27
2022-10-21T20:51:07.292Z,31.33
2022-10-21T20:53:33.635Z,31.32
2022-10-21T20:55:59.965Z,31.32
2022-10-21T20:58:26.307Z,31.33
2022-10-21T21:00:52.635Z,31.39
2022-10-21T21:03:18.982Z,31.40
2022-10-21T21:05:45.313Z,31.32
2022-10-21T21:08:12.851Z,31.31
2022-10-21T21:10:38.079Z,31.37
2022-10-21T21:13:04.332Z,31.48
2022-10-21T21:15:30.699Z,31.39
2022-10-21T21:17:57.040Z,31.56
2022-10-21T21:20:23.384Z,31.33
2022-10-21T21:22:49.758Z,31.39
2022-10-21T21:25:16.099Z,31.51
2022-10-21T21:27:42.436Z,31.53
2022-10-21T21:30:08.808Z,31.36
2022-10-21T21:32:35.146Z,31.34
2022-10-21T21:35:05.048Z,31.37
2022-10-21T21:37:27.840Z,31.54
2022-10-21T21:39:54.175Z,31.38
2022-10-21T21:42:20.529Z,31.46
2022-10-21T21:44:46.871Z,31.30
2022-10-21T21:47:13.205Z,31.40
2022-10-21T21:49:39.550Z,31.50
2022-10-21T21:52:05.901Z,31.44
2022-10-21T21:54:32.245Z,31.35
2022-10-21T21:57:23.176Z,31.44
2022-10-21T21:59:24.928Z,31.45
2022-10-21T22:01:51.323Z,31.40
2022-10-21T22:04:17.637Z,31.30
2022-10-21T22:06:43.992Z,31.45
2022-10-21T22:09:10.404Z,31.49
2022-10-21T22:11:36.670Z,31.45
2022-10-21T22:14:03.015Z,31.36
2022-10-21T22:16:29.353Z,31.42
2022-10-21T22:18:55.687Z,31.36
2022-10-21T22:21:23.052Z,31.30
2022-10-21T22:23:48.364Z,31.31
2022-10-21T22:26:14.708Z,31.34
2022-10-21T22:28:41.088Z,31.34
2022-10-21T22:31:07.421Z,31.30
2022-10-21T22:33:33.800Z,31.31
2022-10-21T22:36:00.114Z,31.32
2022-10-21T22:38:26.451Z,31.40
2022-10-21T22:40:52.788Z,31.43
2022-10-21T22:43:19.137Z,31.37
2022-10-21T22:45:48.043Z,31.36
2022-10-21T22:48:11.810Z,31.43
2022-10-21T22:50:38.155Z,31.42
2022-10-21T22:53:04.492Z,31.46
2022-10-21T22:55:30.831Z,31.38
2022-10-21T22:57:57.173Z,31.41
2022-10-21T23:00:23.509Z,31.39
2022-10-21T23:02:49.839Z,31.36
2022-10-21T23:05:16.182Z,31.41
2022-10-21T23:07:42.523Z,31.34
2022-10-21T23:10:10.078Z,31.36
2022-10-21T23:12:36.258Z,31.38
2022-10-21T23:15:02.608Z,31.43
2022-10-21T23:17:28.945Z,31.30
2022-10-21T23:19:55.272Z,31.35
2022-10-21T23:22:21.636Z,31.30
2022-10-21T23:24:47.989Z,31.38
2022-10-21T23:27:14.337Z,31.30
2022-10-21T23:29:40.670Z,31.46
2022-10-21T23:32:07.025Z,31.32
2022-10-21T23:34:33.396Z,31.40
2022-10-21T23:36:59.719Z,31.36
2022-10-21T23:39:26.053Z,31.30
2022-10-21T23:41:52.404Z,31.27
2022-10-21T23:44:18.770Z,31.27
2022-10-21T23:46:45.113Z,31.26
2022-10-21T23:49:11.446Z,31.30
2022-10-21T23:51:37.792Z,31.33
2022-10-21T23:54:04.125Z,31.32
2022-10-21T23:56:30.507Z,31.35
2022-10-21T23:58:56.858Z,31.34
